Time;durP1;ratioP1;P1;durP2;ratioP2;P2;SDS_P1;SDS_P2;PMS_P1;PMS_P2;Temp;Humidity;BMP_temperature;BMP_pressure;BME280_temperature;BME280_humidity;BME280_pressure;Samples;Min_cycle;Max_cycle;Signal;HPM_P1;HPM_P2
2021/01/14 00:00:18;;;;;;;8.03;2.93;;;3.20;99.90;;;;;;4972987;28;20466;-69
2021/01/14 00:02:45;;;;;;;2.90;1.30;;;3.10;99.90;;;;;;4971854;28;20437;-71
2021/01/14 00:05:13;;;;;;;3.20;1.27;;;3.00;99.90;;;;;;4973263;28;20492;-70
2021/01/14 00:07:41;;;;;;;1.30;1.13;;;3.00;99.90;;;;;;4974112;28;20530;-71
2021/01/14 00:10:09;;;;;;;3.33;1.23;;;3.00;99.90;;;;;;4974187;28;20568;-71
2021/01/14 00:12:36;;;;;;;2.50;1.30;;;2.90;99.90;;;;;;4969497;28;20438;-71
2021/01/14 00:15:05;;;;;;;8.30;1.20;;;2.90;99.90;;;;;;4974424;28;20462;-72
2021/01/14 00:17:31;;;;;;;0.90;0.80;;;2.90;99.90;;;;;;4975460;28;20462;-73
2021/01/14 00:19:58;;;;;;;1.27;1.10;;;2.80;99.90;;;;;;4972455;28;20468;-72
2021/01/14 00:22:25;;;;;;;2.50;1.47;;;2.70;99.90;;;;;;4959697;28;20551;-71
2021/01/14 00:24:52;;;;;;;1.90;1.00;;;2.70;99.90;;;;;;4970715;28;20937;-72
2021/01/14 00:27:19;;;;;;;4.20;2.60;;;2.70;99.90;;;;;;4974182;28;20545;-71
2021/01/14 00:29:46;;;;;;;8.53;2.40;;;2.70;99.90;;;;;;4972595;28;20487;-72
2021/01/14 00:32:12;;;;;;;3.87;1.23;;;2.70;99.90;;;;;;4976015;28;20437;-72
2021/01/14 00:34:39;;;;;;;3.43;2.10;;;2.70;99.90;;;;;;4973778;28;20896;-68
2021/01/14 00:39:54;;;;;;;1.37;0.90;;;2.60;99.90;;;;;;4970740;28;20425;-70
2021/01/14 00:42:20;;;;;;;3.80;1.63;;;2.50;99.90;;;;;;4970019;28;20575;-70
2021/01/14 00:44:47;;;;;;;0.90;0.70;;;2.50;99.90;;;;;;4973244;28;21290;-70
2021/01/14 00:47:14;;;;;;;1.70;1.13;;;2.40;99.90;;;;;;4973406;28;20491;-71
2021/01/14 00:49:40;;;;;;;0.90;0.73;;;2.40;99.90;;;;;;4974207;28;20921;-70
2021/01/14 00:52:09;;;;;;;1.23;1.13;;;2.40;99.90;;;;;;4975042;28;20853;-70
2021/01/14 00:54:37;;;;;;;1.67;1.57;;;2.40;99.90;;;;;;4973764;28;20486;-69
2021/01/14 00:57:07;;;;;;;0.90;0.70;;;2.40;99.90;;;;;;4972120;28;20474;-69
2021/01/14 00:59:33;;;;;;;1.20;1.00;;;2.50;99.90;;;;;;4975341;28;20520;-73
2021/01/14 01:02:02;;;;;;;1.00;0.80;;;2.50;99.90;;;;;;4976294;28;20992;-71
2021/01/14 01:04:29;;;;;;;2.07;1.87;;;2.50;99.90;;;;;;4971698;28;20542;-71
2021/01/14 01:06:56;;;;;;;4.97;1.23;;;2.60;99.90;;;;;;4969888;28;20543;-69
2021/01/14 01:09:23;;;;;;;3.17;1.57;;;2.70;99.90;;;;;;4978433;28;20560;-70
2021/01/14 01:11:50;;;;;;;2.60;2.00;;;2.70;99.90;;;;;;4972122;28;20473;-70
2021/01/14 01:14:17;;;;;;;5.23;1.37;;;2.70;99.90;;;;;;4969788;28;20465;-71
2021/01/14 01:16:44;;;;;;;3.43;0.90;;;2.70;99.90;;;;;;4976586;28;20456;-71
2021/01/14 01:19:10;;;;;;;2.07;1.20;;;2.70;99.90;;;;;;4971186;28;21039;-71
2021/01/14 01:21:42;;;;;;;1.00;0.80;;;2.70;99.90;;;;;;4976557;28;20568;-70
2021/01/14 01:24:09;;;;;;;8.47;1.50;;;2.80;99.90;;;;;;4975434;28;20475;-71
2021/01/14 01:26:36;;;;;;;1.37;1.27;;;2.80;99.90;;;;;;4970596;28;20466;-71
2021/01/14 01:29:03;;;;;;;0.90;0.70;;;2.70;99.90;;;;;;4972129;28;20458;-71
2021/01/14 01:31:30;;;;;;;1.07;0.97;;;2.70;99.90;;;;;;4976121;28;20910;-70
2021/01/14 01:33:57;;;;;;;1.00;0.80;;;2.60;99.90;;;;;;4976059;28;20515;-70
2021/01/14 01:36:24;;;;;;;2.13;1.93;;;2.60;99.90;;;;;;4967792;28;20523;-71
2021/01/14 01:38:50;;;;;;;22.37;2.63;;;2.60;99.90;;;;;;4975441;28;20507;-71
2021/01/14 01:41:17;;;;;;;1.30;0.97;;;2.40;99.90;;;;;;4968891;28;20506;-71
2021/01/14 01:43:43;;;;;;;3.27;2.40;;;2.40;99.90;;;;;;4961287;28;20500;-70
2021/01/14 01:46:22;;;;;;;1.53;1.00;;;2.40;99.90;;;;;;4968778;28;20497;-69
2021/01/14 01:48:49;;;;;;;1.40;1.00;;;2.40;99.90;;;;;;4976856;28;20437;-70
2021/01/14 01:51:16;;;;;;;1.67;1.37;;;2.30;99.90;;;;;;4969881;28;20521;-70
2021/01/14 01:53:43;;;;;;;1.50;1.40;;;2.40;99.90;;;;;;4974549;28;20519;-71
2021/01/14 01:56:10;;;;;;;2.13;1.17;;;2.40;99.90;;;;;;4967774;28;21261;-71
2021/01/14 01:58:40;;;;;;;1.60;1.20;;;2.40;99.90;;;;;;4974253;28;20470;-71
2021/01/14 02:01:07;;;;;;;1.17;1.00;;;2.40;99.90;;;;;;4970604;28;20486;-71
2021/01/14 02:03:34;;;;;;;1.67;1.50;;;2.40;99.90;;;;;;4974435;28;21011;-72
2021/01/14 02:06:02;;;;;;;1.17;0.80;;;2.40;99.90;;;;;;4976960;28;20492;-72
2021/01/14 02:08:44;;;;;;;2.90;2.20;;;2.40;99.90;;;;;;4972165;28;20495;-70
2021/01/14 02:11:17;;;;;;;0.90;0.80;;;2.30;99.90;;;;;;4972872;28;20529;-71
2021/01/14 02:14:00;;;;;;;7.40;1.20;;;2.30;99.90;;;;;;4969686;28;21060;-71
2021/01/14 02:16:27;;;;;;;1.03;0.93;;;2.30;99.90;;;;;;4975321;28;20532;-72
2021/01/14 02:18:55;;;;;;;1.00;0.80;;;2.30;99.90;;;;;;4977109;28;20486;-70
2021/01/14 02:21:25;;;;;;;1.93;1.33;;;2.30;99.90;;;;;;4980103;28;20463;-71
2021/01/14 02:23:58;;;;;;;6.13;1.53;;;2.20;99.90;;;;;;4979124;28;20878;-71
2021/01/14 02:26:27;;;;;;;5.70;2.30;;;2.20;99.90;;;;;;4980578;28;20603;-71
2021/01/14 02:28:55;;;;;;;2.80;1.53;;;2.30;99.90;;;;;;4979463;28;20474;-70
2021/01/14 02:31:23;;;;;;;1.73;1.40;;;2.30;99.90;;;;;;4977224;28;20453;-69
2021/01/14 02:33:51;;;;;;;2.43;0.80;;;2.20;99.90;;;;;;4979192;28;20981;-70
2021/01/14 02:36:18;;;;;;;1.30;1.20;;;2.20;99.90;;;;;;4975895;28;20481;-72
2021/01/14 02:38:45;;;;;;;2.03;1.43;;;2.30;99.90;;;;;;4981241;28;20546;-71
2021/01/14 02:41:11;;;;;;;1.10;1.00;;;2.30;99.90;;;;;;4975118;28;20532;-72
2021/01/14 02:43:39;;;;;;;0.90;0.70;;;2.30;99.90;;;;;;4976305;28;20439;-72
2021/01/14 02:46:07;;;;;;;1.10;1.00;;;2.20;99.90;;;;;;4982912;28;20464;-71
2021/01/14 02:48:36;;;;;;;1.00;0.90;;;2.20;99.90;;;;;;4979787;28;20905;-71
2021/01/14 02:51:07;;;;;;;1.20;1.10;;;2.30;99.90;;;;;;4978145;28;20461;-70
2021/01/14 02:53:34;;;;;;;1.83;0.83;;;2.40;99.90;;;;;;4982723;28;21038;-71
2021/01/14 02:56:01;;;;;;;5.20;1.07;;;2.30;99.90;;;;;;4980763;28;20596;-70
2021/01/14 02:58:28;;;;;;;1.00;0.90;;;2.30;99.90;;;;;;4977472;28;20444;-72
2021/01/14 03:00:56;;;;;;;3.77;1.37;;;2.30;99.90;;;;;;4979165;28;20465;-71
2021/01/14 03:03:23;;;;;;;1.40;1.30;;;2.30;99.90;;;;;;4978308;28;20562;-71
2021/01/14 03:05:50;;;;;;;0.90;0.70;;;2.20;99.90;;;;;;4976570;28;20560;-71
2021/01/14 03:08:17;;;;;;;4.03;1.23;;;2.20;99.90;;;;;;4977465;28;20534;-70
2021/01/14 03:10:44;;;;;;;1.30;0.80;;;2.30;99.90;;;;;;4978407;28;20544;-72
2021/01/14 03:13:11;;;;;;;1.40;0.87;;;2.30;99.90;;;;;;4980454;28;20529;-72
2021/01/14 03:15:38;;;;;;;4.30;2.60;;;2.30;99.90;;;;;;4976063;28;20568;-70
2021/01/14 03:18:06;;;;;;;1.60;1.47;;;2.30;99.90;;;;;;4966700;28;20944;-72
2021/01/14 03:20:32;;;;;;;2.43;1.00;;;2.20;99.90;;;;;;4978335;28;20454;-70
2021/01/14 03:22:59;;;;;;;0.90;0.70;;;2.30;99.90;;;;;;4979585;28;20563;-70
2021/01/14 03:25:26;;;;;;;3.10;1.10;;;2.30;99.90;;;;;;4978627;28;20885;-71
2021/01/14 03:27:52;;;;;;;1.60;1.07;;;2.30;99.90;;;;;;4972242;28;20487;-71
2021/01/14 03:30:20;;;;;;;6.60;1.23;;;2.30;99.90;;;;;;4976867;28;20437;-70
2021/01/14 03:32:49;;;;;;;1.93;1.83;;;2.40;99.90;;;;;;4977278;28;20433;-71
2021/01/14 03:35:17;;;;;;;1.20;1.10;;;2.30;99.90;;;;;;4971658;28;20485;-72
2021/01/14 03:37:43;;;;;;;1.47;1.03;;;2.40;99.90;;;;;;4978987;28;20434;-72
2021/01/14 03:40:11;;;;;;;2.17;1.53;;;2.40;99.90;;;;;;4975768;28;20604;-71
2021/01/14 03:42:38;;;;;;;1.00;0.90;;;2.50;99.90;;;;;;4974522;28;20518;-71
2021/01/14 03:45:07;;;;;;;1.00;0.90;;;2.50;99.90;;;;;;4976416;28;20486;-71
2021/01/14 03:47:34;;;;;;;1.27;0.80;;;2.50;99.90;;;;;;4976638;28;20509;-71
2021/01/14 03:50:01;;;;;;;1.00;0.83;;;2.50;99.90;;;;;;4975410;28;20466;-72
2021/01/14 03:52:28;;;;;;;2.20;1.40;;;2.50;99.90;;;;;;4973830;28;20433;-71
2021/01/14 03:54:55;;;;;;;2.63;1.53;;;2.60;99.90;;;;;;4971584;28;20466;-72
2021/01/14 03:57:22;;;;;;;2.23;1.70;;;2.60;99.90;;;;;;4975553;28;20437;-71
2021/01/14 03:59:48;;;;;;;1.50;1.07;;;2.60;99.90;;;;;;4971227;28;20557;-72
2021/01/14 04:02:15;;;;;;;1.83;1.30;;;2.60;99.90;;;;;;4973236;28;20476;-73
2021/01/14 04:04:43;;;;;;;1.57;1.17;;;2.50;99.90;;;;;;4977436;28;20784;-73
2021/01/14 04:07:11;;;;;;;9.63;2.33;;;2.50;99.90;;;;;;4981961;28;20460;-71
2021/01/14 04:09:39;;;;;;;1.47;1.37;;;2.40;99.90;;;;;;4987016;28;20441;-71
2021/01/14 04:12:07;;;;;;;4.93;1.20;;;2.40;99.90;;;;;;4975839;28;20584;-70
2021/01/14 04:14:34;;;;;;;1.50;1.17;;;2.40;99.90;;;;;;4978813;28;20448;-71
2021/01/14 04:17:00;;;;;;;5.27;1.87;;;2.30;99.90;;;;;;4973557;28;20529;-72
2021/01/14 04:19:27;;;;;;;2.40;1.23;;;2.40;99.90;;;;;;4974883;28;20518;-71
2021/01/14 04:21:54;;;;;;;1.00;0.90;;;2.40;99.90;;;;;;4976876;28;20456;-70
2021/01/14 04:24:20;;;;;;;1.10;1.00;;;2.50;99.90;;;;;;4984266;28;20425;-72
2021/01/14 04:26:49;;;;;;;1.30;0.83;;;2.50;99.90;;;;;;4965474;28;20581;-71
2021/01/14 04:29:15;;;;;;;15.60;1.70;;;2.50;99.90;;;;;;4984141;28;20481;-72
2021/01/14 04:31:42;;;;;;;16.10;3.70;;;2.60;99.90;;;;;;4984841;28;20476;-70
2021/01/14 04:34:09;;;;;;;1.03;0.93;;;2.60;99.90;;;;;;4985955;28;20438;-71
2021/01/14 04:36:35;;;;;;;1.50;1.40;;;2.60;99.90;;;;;;4984924;28;20884;-72
2021/01/14 04:39:02;;;;;;;1.50;1.40;;;2.50;99.90;;;;;;4987915;28;20631;-71
2021/01/14 04:41:44;;;;;;;1.70;1.60;;;2.50;99.90;;;;;;4985767;28;20465;-70
2021/01/14 04:44:14;;;;;;;5.73;1.37;;;2.40;99.90;;;;;;4991444;28;20530;-72
2021/01/14 04:46:50;;;;;;;1.43;1.00;;;2.30;99.90;;;;;;4986592;28;20487;-71
2021/01/14 04:49:17;;;;;;;1.60;1.50;;;2.30;99.90;;;;;;4990321;28;20493;-71
2021/01/14 04:51:46;;;;;;;3.47;3.00;;;2.30;99.90;;;;;;4989661;28;20450;-71
2021/01/14 04:54:14;;;;;;;1.13;1.03;;;2.40;99.90;;;;;;4983802;28;20867;-68
2021/01/14 04:56:46;;;;;;;4.03;1.53;;;2.40;99.90;;;;;;4986081;28;20574;-71
2021/01/14 04:59:18;;;;;;;2.30;1.60;;;2.40;99.90;;;;;;4990552;28;20478;-72
2021/01/14 05:01:48;;;;;;;1.43;1.33;;;2.40;99.90;;;;;;4986179;28;20519;-72
2021/01/14 05:04:22;;;;;;;1.57;1.47;;;2.30;99.90;;;;;;4975004;28;20485;-72
2021/01/14 05:06:57;;;;;;;1.00;0.90;;;2.20;99.90;;;;;;4972206;28;20481;-72
2021/01/14 05:09:26;;;;;;;6.93;1.67;;;2.30;99.90;;;;;;4980934;28;21101;-71
2021/01/14 05:11:57;;;;;;;8.40;1.20;;;2.30;99.90;;;;;;4973336;28;20522;-71
2021/01/14 05:14:25;;;;;;;2.70;1.57;;;2.20;99.90;;;;;;4984501;28;20490;-71
2021/01/14 05:16:53;;;;;;;1.43;1.33;;;2.20;99.90;;;;;;4977615;28;20579;-71
2021/01/14 05:19:19;;;;;;;1.73;1.20;;;2.20;99.90;;;;;;4976721;28;20493;-70
2021/01/14 05:21:46;;;;;;;1.60;1.23;;;2.30;99.90;;;;;;4982203;28;20469;-72
2021/01/14 05:24:15;;;;;;;1.23;0.80;;;2.20;99.90;;;;;;4979487;28;20462;-71
2021/01/14 05:26:42;;;;;;;3.37;1.57;;;2.20;99.90;;;;;;4981673;28;20486;-71
2021/01/14 05:29:16;;;;;;;3.27;1.00;;;2.20;99.90;;;;;;4977310;28;20516;-71
2021/01/14 05:31:45;;;;;;;1.53;1.10;;;2.30;99.90;;;;;;4984635;28;20462;-72
2021/01/14 05:34:14;;;;;;;3.40;1.80;;;2.30;99.90;;;;;;4981115;28;20495;-71
2021/01/14 05:36:56;;;;;;;1.80;1.20;;;2.40;99.90;;;;;;4984265;28;20483;-71
2021/01/14 05:39:24;;;;;;;3.00;1.60;;;2.40;99.90;;;;;;4979477;28;20463;-71
2021/01/14 05:41:51;;;;;;;1.87;1.77;;;2.30;99.90;;;;;;4974820;28;20516;-71
2021/01/14 05:44:18;;;;;;;4.33;2.67;;;2.20;99.90;;;;;;4968869;28;20520;-71
2021/01/14 05:46:45;;;;;;;2.10;1.77;;;2.20;99.90;;;;;;4976741;28;20489;-71
2021/01/14 05:49:13;;;;;;;1.93;1.50;;;2.20;99.90;;;;;;4980460;28;20901;-69
2021/01/14 05:51:40;;;;;;;1.30;1.07;;;2.20;99.90;;;;;;4976300;28;21005;-70
2021/01/14 05:54:08;;;;;;;3.53;1.93;;;2.10;99.90;;;;;;4977814;28;20566;-71
2021/01/14 05:56:37;;;;;;;2.37;2.17;;;2.00;99.90;;;;;;4978832;28;20495;-70
2021/01/14 05:59:05;;;;;;;1.30;1.17;;;2.00;99.90;;;;;;4970321;28;20964;-72
2021/01/14 06:01:32;;;;;;;3.80;2.10;;;2.00;99.90;;;;;;4977415;28;20468;-71
2021/01/14 06:04:16;;;;;;;4.10;1.80;;;1.90;99.90;;;;;;4973936;28;20454;-71
2021/01/14 06:06:44;;;;;;;1.63;1.47;;;1.80;99.90;;;;;;4977038;28;20495;-70
2021/01/14 06:09:12;;;;;;;2.73;2.10;;;1.80;99.90;;;;;;4985540;28;20469;-71
2021/01/14 06:11:39;;;;;;;1.47;1.37;;;1.90;99.90;;;;;;4987202;28;20480;-71
2021/01/14 06:14:05;;;;;;;12.23;2.20;;;1.90;99.90;;;;;;4982871;28;20463;-70
2021/01/14 06:16:49;;;;;;;2.00;1.87;;;1.90;99.90;;;;;;4982094;28;20484;-71
2021/01/14 06:19:16;;;;;;;3.50;1.83;;;1.90;99.90;;;;;;4978710;28;20443;-70
2021/01/14 06:21:44;;;;;;;1.67;1.13;;;1.80;99.90;;;;;;4981460;28;20515;-72
2021/01/14 06:24:24;;;;;;;1.23;1.03;;;1.80;99.90;;;;;;4976796;28;20448;-70
2021/01/14 06:26:52;;;;;;;2.73;1.77;;;1.60;99.90;;;;;;4978868;28;20482;-71
2021/01/14 06:29:20;;;;;;;1.87;1.77;;;1.60;99.90;;;;;;4981405;28;20551;-71
2021/01/14 06:31:47;;;;;;;1.77;1.30;;;1.50;99.90;;;;;;4982567;28;20429;-71
2021/01/14 06:34:20;;;;;;;1.30;1.20;;;1.60;99.90;;;;;;4985150;28;20465;-70
2021/01/14 06:36:49;;;;;;;1.73;1.33;;;1.50;99.90;;;;;;4979090;28;20465;-68
2021/01/14 06:39:18;;;;;;;6.33;1.87;;;1.40;99.90;;;;;;4974371;28;20975;-71
2021/01/14 06:41:46;;;;;;;1.83;1.60;;;1.50;99.90;;;;;;4983586;28;20874;-71
2021/01/14 06:44:16;;;;;;;2.10;1.73;;;1.50;99.90;;;;;;4982343;28;20439;-70
2021/01/14 06:46:43;;;;;;;2.60;1.30;;;1.60;99.90;;;;;;4979673;28;20461;-69
2021/01/14 06:49:14;;;;;;;6.33;3.10;;;1.60;99.90;;;;;;4976129;28;21174;-73
2021/01/14 06:51:56;;;;;;;5.73;2.30;;;1.70;99.90;;;;;;4982136;28;21021;-70
2021/01/14 06:54:23;;;;;;;2.97;2.77;;;1.70;99.90;;;;;;4981352;28;20433;-70
2021/01/14 06:56:57;;;;;;;10.87;3.37;;;1.70;99.90;;;;;;4983319;28;20473;-71
2021/01/14 06:59:25;;;;;;;5.30;3.73;;;1.70;99.90;;;;;;4980763;28;20456;-70
2021/01/14 07:02:28;;;;;;;3.73;2.40;;;1.80;99.90;;;;;;4984335;28;20450;-70
2021/01/14 07:05:02;;;;;;;9.17;4.40;;;1.80;99.90;;;;;;4982051;28;20459;-70
2021/01/14 07:07:48;;;;;;;15.13;3.87;;;1.80;99.90;;;;;;4986198;28;20441;-70
2021/01/14 07:10:15;;;;;;;6.40;3.10;;;1.80;99.90;;;;;;4983708;28;20448;-71
2021/01/14 07:12:44;;;;;;;5.77;3.43;;;1.80;99.90;;;;;;4983807;28;21343;-71
2021/01/14 07:15:12;;;;;;;6.10;2.47;;;1.90;99.90;;;;;;4988233;28;20532;-70
2021/01/14 07:17:41;;;;;;;4.43;2.40;;;1.90;99.90;;;;;;4984111;28;20433;-71
2021/01/14 07:20:10;;;;;;;7.13;3.40;;;1.90;99.90;;;;;;4982440;28;20478;-71
2021/01/14 07:22:44;;;;;;;5.17;2.27;;;2.00;99.90;;;;;;4987212;28;20496;-71
2021/01/14 07:25:14;;;;;;;3.23;2.93;;;2.00;99.90;;;;;;4985259;28;20555;-71
2021/01/14 07:27:42;;;;;;;4.40;2.30;;;2.00;99.90;;;;;;4983649;28;20494;-71
2021/01/14 07:30:10;;;;;;;5.10;1.63;;;2.00;99.90;;;;;;4988128;28;20943;-71
2021/01/14 07:32:57;;;;;;;2.47;2.27;;;2.00;99.90;;;;;;4987425;28;20461;-71
2021/01/14 07:35:41;;;;;;;4.13;2.93;;;2.00;99.90;;;;;;4978629;28;20565;-71
2021/01/14 07:38:09;;;;;;;4.67;1.90;;;2.10;99.90;;;;;;4990639;28;20469;-72
2021/01/14 07:40:38;;;;;;;4.10;2.67;;;2.10;99.90;;;;;;4980461;28;20453;-71
2021/01/14 07:43:06;;;;;;;2.87;2.53;;;2.10;99.90;;;;;;4983476;28;20976;-72
2021/01/14 07:45:33;;;;;;;1.60;1.50;;;2.10;99.90;;;;;;4984983;28;20871;-72
2021/01/14 07:48:20;;;;;;;2.23;2.03;;;2.10;99.90;;;;;;4981595;28;20553;-71
2021/01/14 07:50:56;;;;;;;3.27;1.93;;;2.20;99.90;;;;;;4985038;28;20831;-71
2021/01/14 07:53:23;;;;;;;2.70;1.87;;;2.10;99.90;;;;;;4979081;28;20524;-71
2021/01/14 07:55:50;;;;;;;4.60;2.30;;;2.10;99.90;;;;;;4979679;28;20545;-71
2021/01/14 07:58:21;;;;;;;7.73;1.77;;;2.00;99.90;;;;;;4981052;28;20468;-70
2021/01/14 08:01:06;;;;;;;1.50;1.10;;;1.90;99.90;;;;;;4981510;28;20825;-69
2021/01/14 08:03:34;;;;;;;2.07;1.97;;;2.00;99.90;;;;;;4980975;28;20455;-70
2021/01/14 08:06:18;;;;;;;2.17;1.97;;;1.80;99.90;;;;;;4980185;28;20465;-69
2021/01/14 08:08:56;;;;;;;3.60;2.10;;;1.70;99.90;;;;;;4982038;28;21199;-70
2021/01/14 08:11:24;;;;;;;4.13;1.93;;;1.90;99.90;;;;;;4983254;28;20490;-70
2021/01/14 08:14:13;;;;;;;3.77;2.00;;;2.00;99.90;;;;;;4982727;28;20468;-70
2021/01/14 08:16:41;;;;;;;4.87;2.20;;;1.90;99.90;;;;;;4980213;28;20457;-70
2021/01/14 08:19:16;;;;;;;3.93;2.33;;;2.00;99.90;;;;;;4984169;28;20943;-70
2021/01/14 08:21:43;;;;;;;3.13;2.70;;;2.00;99.90;;;;;;4981726;28;20455;-70
2021/01/14 08:24:10;;;;;;;1.73;1.60;;;2.00;99.90;;;;;;4978953;28;20877;-72
2021/01/14 08:26:54;;;;;;;1.40;1.30;;;2.10;99.90;;;;;;4981042;28;20489;-72
2021/01/14 08:29:31;;;;;;;1.83;1.73;;;2.30;99.90;;;;;;4984467;28;20472;-72
2021/01/14 08:31:58;;;;;;;2.50;2.07;;;2.40;99.90;;;;;;4975182;28;20567;-71
2021/01/14 08:34:25;;;;;;;1.50;1.30;;;2.50;99.90;;;;;;4982336;28;20487;-71
2021/01/14 08:36:54;;;;;;;6.57;2.63;;;2.50;99.90;;;;;;4983397;28;20873;-72
2021/01/14 08:39:23;;;;;;;2.70;2.23;;;2.60;99.90;;;;;;4974931;28;20456;-73
2021/01/14 08:41:50;;;;;;;4.33;2.63;;;2.70;99.90;;;;;;4981779;28;20445;-71
2021/01/14 08:44:23;;;;;;;6.13;1.53;;;2.70;99.90;;;;;;4981479;28;20462;-72
2021/01/14 08:46:52;;;;;;;4.83;4.37;;;2.60;99.90;;;;;;4982774;28;20482;-70
2021/01/14 08:49:19;;;;;;;5.60;3.20;;;2.50;99.90;;;;;;4978546;28;20547;-71
2021/01/14 08:51:46;;;;;;;28.13;3.40;;;2.50;99.90;;;;;;4979377;28;20424;-71
2021/01/14 08:54:13;;;;;;;4.53;2.23;;;2.60;99.90;;;;;;4978042;28;20441;-72
2021/01/14 08:56:40;;;;;;;3.67;2.03;;;2.50;99.90;;;;;;4979302;28;21073;-70
2021/01/14 08:59:14;;;;;;;2.10;2.00;;;2.60;99.90;;;;;;4975210;28;20434;-71
2021/01/14 09:01:42;;;;;;;2.03;1.70;;;2.60;99.90;;;;;;4980117;28;20457;-71
2021/01/14 09:04:10;;;;;;;2.17;1.70;;;2.80;99.90;;;;;;4977151;28;20569;-72
2021/01/14 09:06:38;;;;;;;7.97;2.27;;;2.90;99.90;;;;;;4981027;28;20707;-71
2021/01/14 09:09:07;;;;;;;2.17;1.97;;;2.90;99.90;;;;;;4976409;28;20463;-72
2021/01/14 09:11:35;;;;;;;2.47;2.27;;;3.00;99.90;;;;;;4980426;28;20524;-71
2021/01/14 09:14:05;;;;;;;5.90;1.80;;;3.00;99.90;;;;;;4971036;28;20524;-72
2021/01/14 09:16:32;;;;;;;5.40;2.10;;;3.10;99.90;;;;;;4981672;28;20486;-71
2021/01/14 09:19:00;;;;;;;3.47;2.20;;;3.20;99.90;;;;;;4973952;28;20438;-72
2021/01/14 09:21:34;;;;;;;9.63;2.20;;;3.10;99.90;;;;;;4981568;28;20540;-71
2021/01/14 09:24:07;;;;;;;3.77;2.20;;;3.20;99.90;;;;;;4975068;28;20444;-71
2021/01/14 09:26:34;;;;;;;4.63;2.57;;;3.20;99.90;;;;;;4980791;28;20551;-72
2021/01/14 09:29:01;;;;;;;4.13;2.97;;;3.40;99.90;;;;;;4980690;28;20461;-71
2021/01/14 09:31:30;;;;;;;3.40;2.50;;;3.50;99.90;;;;;;4980906;28;20458;-73
2021/01/14 09:33:59;;;;;;;2.00;1.57;;;3.50;99.90;;;;;;4974305;28;20476;-71
2021/01/14 09:36:25;;;;;;;4.10;2.30;;;3.60;99.90;;;;;;4975086;28;20573;-72
2021/01/14 09:38:54;;;;;;;2.13;1.47;;;4.00;99.90;;;;;;4977856;28;20465;-71
2021/01/14 09:41:25;;;;;;;7.90;3.60;;;4.20;99.90;;;;;;4982991;28;20466;-72
2021/01/14 09:43:53;;;;;;;2.27;1.60;;;4.30;99.90;;;;;;4977161;28;20466;-72
2021/01/14 09:46:22;;;;;;;2.93;1.83;;;4.50;99.90;;;;;;4981953;28;20489;-70
2021/01/14 09:48:49;;;;;;;5.20;1.80;;;4.70;99.90;;;;;;4976163;28;20474;-70
2021/01/14 09:51:17;;;;;;;2.77;2.53;;;4.50;99.90;;;;;;4977192;28;20493;-71
2021/01/14 09:53:48;;;;;;;3.30;1.97;;;4.20;99.90;;;;;;4975826;28;20466;-72
2021/01/14 09:56:22;;;;;;;3.00;2.17;;;4.00;99.90;;;;;;4981474;28;20477;-69
2021/01/14 09:58:53;;;;;;;3.70;3.00;;;3.90;99.90;;;;;;4983316;28;20496;-69
2021/01/14 10:01:24;;;;;;;2.47;1.73;;;4.00;99.90;;;;;;4980686;28;20473;-69
2021/01/14 10:03:59;;;;;;;1.97;1.77;;;4.10;99.90;;;;;;4978112;28;20990;-71
2021/01/14 10:06:28;;;;;;;2.40;2.00;;;4.10;99.90;;;;;;4974844;28;20523;-70
2021/01/14 10:08:56;;;;;;;3.73;3.07;;;4.20;99.90;;;;;;4978113;28;20473;-69
2021/01/14 10:11:25;;;;;;;2.43;2.23;;;4.30;99.90;;;;;;4976486;28;20463;-70
2021/01/14 10:13:52;;;;;;;3.83;2.93;;;4.30;99.90;;;;;;4975102;28;20470;-70
2021/01/14 10:16:20;;;;;;;2.53;2.13;;;4.60;99.90;;;;;;4973290;28;20486;-70
2021/01/14 10:18:47;;;;;;;2.53;2.33;;;4.70;99.90;;;;;;4979695;28;20517;-69
2021/01/14 10:21:14;;;;;;;2.47;2.27;;;4.50;99.90;;;;;;4977915;28;20917;-71
2021/01/14 10:23:42;;;;;;;2.30;2.03;;;4.50;99.90;;;;;;4974181;28;20441;-69
2021/01/14 10:26:09;;;;;;;4.10;2.67;;;4.50;99.90;;;;;;4977879;28;20472;-71
2021/01/14 10:28:46;;;;;;;1.97;1.87;;;4.60;99.90;;;;;;4980820;28;20450;-70
2021/01/14 10:31:30;;;;;;;1.53;1.40;;;4.60;99.90;;;;;;4975180;28;20948;-69
2021/01/14 10:33:57;;;;;;;2.83;2.63;;;4.30;99.90;;;;;;4975257;28;20516;-70
2021/01/14 10:36:24;;;;;;;1.30;1.17;;;4.10;99.90;;;;;;4974573;28;20498;-70
2021/01/14 10:38:52;;;;;;;1.97;1.57;;;4.20;99.90;;;;;;4984983;28;20471;-69
2021/01/14 10:41:22;;;;;;;2.23;1.93;;;3.90;99.90;;;;;;4984301;28;20440;-70
2021/01/14 10:43:49;;;;;;;2.33;2.13;;;4.00;99.90;;;;;;4977977;28;20469;-70
2021/01/14 10:46:23;;;;;;;3.33;2.30;;;4.10;99.90;;;;;;4983267;28;20552;-69
2021/01/14 10:48:50;;;;;;;3.30;1.80;;;3.90;99.90;;;;;;4985795;28;20453;-71
2021/01/14 10:51:32;;;;;;;2.03;1.73;;;4.00;99.90;;;;;;4982096;28;20463;-70
2021/01/14 10:54:00;;;;;;;2.23;1.60;;;4.00;99.90;;;;;;4979188;28;20587;-70
2021/01/14 10:56:27;;;;;;;1.80;1.33;;;4.10;99.90;;;;;;4983628;28;20503;-69
2021/01/14 10:58:57;;;;;;;0.90;0.70;;;4.10;99.90;;;;;;4980475;28;20458;-70
2021/01/14 11:01:24;;;;;;;2.33;1.47;;;4.10;99.90;;;;;;4981876;28;20934;-70
2021/01/14 11:03:53;;;;;;;3.87;2.70;;;4.40;99.90;;;;;;4977952;28;20473;-72
2021/01/14 11:06:29;;;;;;;1.10;1.00;;;4.60;99.90;;;;;;4980633;28;20472;-71
2021/01/14 11:09:01;;;;;;;2.10;1.90;;;4.40;99.90;;;;;;4979961;28;20457;-71
2021/01/14 11:11:28;;;;;;;6.03;1.60;;;4.30;99.90;;;;;;4989123;28;20470;-71
2021/01/14 11:13:54;;;;;;;3.87;2.10;;;4.40;99.90;;;;;;4982652;28;20436;-70
2021/01/14 11:16:22;;;;;;;2.00;1.70;;;4.40;99.90;;;;;;4979233;28;20457;-69
2021/01/14 11:18:50;;;;;;;5.87;3.73;;;4.30;99.90;;;;;;4984148;28;20468;-71
2021/01/14 11:21:18;;;;;;;1.50;1.00;;;4.30;99.90;;;;;;4982057;28;20469;-73
2021/01/14 11:23:45;;;;;;;2.53;2.37;;;4.10;99.90;;;;;;4982132;28;20500;-71
2021/01/14 11:26:18;;;;;;;1.33;1.23;;;3.90;99.90;;;;;;4985277;28;20493;-70
2021/01/14 11:28:46;;;;;;;4.93;1.90;;;3.90;99.90;;;;;;4980076;28;20996;-72
2021/01/14 11:31:13;;;;;;;3.33;1.10;;;4.00;99.90;;;;;;4981921;28;20873;-71
2021/01/14 11:33:40;;;;;;;2.07;1.53;;;4.10;99.90;;;;;;4974442;28;20749;-71
2021/01/14 11:36:08;;;;;;;3.50;1.70;;;4.30;99.90;;;;;;4979571;28;20995;-71
2021/01/14 11:38:34;;;;;;;2.70;2.50;;;4.10;99.90;;;;;;4978004;28;20433;-71
2021/01/14 11:41:01;;;;;;;2.93;2.57;;;4.10;99.90;;;;;;4983226;28;20920;-70
2021/01/14 11:43:29;;;;;;;1.40;1.30;;;4.10;99.90;;;;;;4982365;28;20872;-71
2021/01/14 11:45:56;;;;;;;2.23;1.87;;;4.00;99.90;;;;;;4981866;28;20546;-70
2021/01/14 11:48:22;;;;;;;1.00;0.87;;;4.00;99.90;;;;;;4987084;28;20807;-71
2021/01/14 11:50:49;;;;;;;2.03;1.80;;;4.10;99.90;;;;;;4977495;28;20560;-71
2021/01/14 11:53:16;;;;;;;1.30;1.20;;;4.00;99.90;;;;;;4977976;28;20473;-70
2021/01/14 11:55:42;;;;;;;16.00;2.70;;;3.90;99.90;;;;;;4978910;28;20489;-72
2021/01/14 11:58:09;;;;;;;1.10;0.90;;;3.90;99.90;;;;;;4978605;28;20469;-71
2021/01/14 12:00:36;;;;;;;5.50;3.07;;;3.90;99.90;;;;;;4973884;28;20836;-70
2021/01/14 12:03:06;;;;;;;0.90;0.77;;;3.90;99.90;;;;;;4982808;28;20463;-72
2021/01/14 12:05:33;;;;;;;0.90;0.70;;;3.90;99.90;;;;;;4980537;28;20541;-70
2021/01/14 12:08:00;;;;;;;2.40;2.20;;;4.10;99.90;;;;;;4979392;28;20474;-70
2021/01/14 12:10:26;;;;;;;5.87;2.27;;;4.30;99.90;;;;;;4977281;28;20544;-70
2021/01/14 12:12:53;;;;;;;1.00;0.80;;;4.40;99.90;;;;;;4980644;28;20464;-70
2021/01/14 12:15:20;;;;;;;0.90;0.80;;;4.30;99.90;;;;;;4982357;28;20878;-70
2021/01/14 12:17:47;;;;;;;4.43;4.13;;;4.30;99.90;;;;;;4982795;28;20440;-71
2021/01/14 12:20:14;;;;;;;5.67;3.50;;;4.30;99.90;;;;;;4983377;28;20903;-71
2021/01/14 12:22:42;;;;;;;1.70;1.20;;;4.40;99.90;;;;;;4974034;28;20473;-72
2021/01/14 12:25:10;;;;;;;1.90;1.70;;;4.20;99.90;;;;;;4974028;28;20461;-70
2021/01/14 12:27:37;;;;;;;1.10;1.00;;;4.10;99.90;;;;;;4975811;28;20490;-71
2021/01/14 12:30:04;;;;;;;1.40;1.30;;;4.10;99.90;;;;;;4983079;28;20449;-72
2021/01/14 12:32:32;;;;;;;4.03;2.53;;;4.20;99.90;;;;;;4981034;28;20497;-73
2021/01/14 12:34:59;;;;;;;4.83;2.53;;;4.30;99.90;;;;;;4979348;28;20475;-71
2021/01/14 12:37:31;;;;;;;4.10;1.80;;;4.50;99.90;;;;;;4975780;28;20459;-71
2021/01/14 12:39:58;;;;;;;3.63;3.03;;;4.50;99.90;;;;;;4975321;28;20984;-70
2021/01/14 12:42:24;;;;;;;1.90;1.80;;;4.50;99.90;;;;;;4980034;28;20861;-71
2021/01/14 12:44:51;;;;;;;0.90;0.80;;;4.70;99.90;;;;;;4983857;28;20498;-71
2021/01/14 12:47:17;;;;;;;1.30;1.20;;;4.40;99.90;;;;;;4978326;28;20514;-72
2021/01/14 12:49:44;;;;;;;1.67;1.57;;;4.00;99.90;;;;;;4980700;28;20462;-71
2021/01/14 12:52:12;;;;;;;1.83;1.67;;;4.00;99.90;;;;;;4974504;28;20515;-71
2021/01/14 12:54:38;;;;;;;1.10;1.00;;;3.90;99.90;;;;;;4976559;28;20459;-71
2021/01/14 12:57:05;;;;;;;3.63;2.20;;;3.80;99.90;;;;;;4984025;28;20795;-71
2021/01/14 12:59:31;;;;;;;2.40;1.80;;;3.90;99.90;;;;;;4976387;28;21867;-72
2021/01/14 13:01:58;;;;;;;2.57;2.17;;;3.90;99.90;;;;;;4976710;28;20472;-70
2021/01/14 13:04:24;;;;;;;3.07;2.10;;;3.80;99.90;;;;;;4980180;28;20455;-71
2021/01/14 13:06:51;;;;;;;1.80;1.50;;;3.60;99.90;;;;;;4976318;28;20565;-71
2021/01/14 13:09:19;;;;;;;2.63;2.37;;;3.60;99.90;;;;;;4978861;28;20495;-70